Terminal Aerodrome Forecast
Issued by NWS

Home | Current Version | Previous Version | Graphics & Text | Print | Product List | Glossary On
Versions: 1 2 3 4 5 6 7 8 9 10 11 12 13 14 15 16 17 18 19 20 21 22 23 24 25 26 27 28 29 30
000
FTUS43 KGRB 010520
TAFRHI
TAF
KRHI 010520Z 0106/0206 01003KT 5SM BR SCT200
      TEMPO 0107/0111 1 1/2SM BR SCT008
     FM011300 01006KT P6SM SCT050
     FM020100 VRB03KT P6SM SKC=

USA.gov is the U.S. government's official web portal to all federal, state and local government web resources and services.